SKUI/UIB METAR and TAF weather

Enter ICAO airport designator
Station Type Date Time Source
SKUI METAR 2019/10/15 00:00 UTC NOAA

SKUI 150000Z 29005KT 9999 FEW025 SCT200 27/24 A2980


Station Type Date Time Source
SKUI Decoded METAR 2019/10/15 00:00 UTC NOAA

Quibdo / El Carano, Colombia (SKUI) 05-43N 076-37W
Oct 14, 2019 - 08:00 PM EDT / 2019.10.15 0000 UTC
Wind: from the WNW (290 degrees) at 6 MPH (5 KT):0
Visibility: greater than 7 mile(s):0
Sky conditions: partly cloudy
Temperature: 80 F (27 C)
Dew Point: 75 F (24 C)
Relative Humidity: 83%
Pressure (altimeter): 29.8 in. Hg (1009 hPa)
ob: SKUI 150000Z 29005KT 9999 FEW025 SCT200 27/24 A2980
cycle: 0

Station Type Date Time Source
SKUI TAF UTC NOAA

Error!

Example: see airport list